Time;durP1;ratioP1;P1;durP2;ratioP2;P2;SDS_P1;SDS_P2;PMS_P1;PMS_P2;Temp;Humidity;BMP_temperature;BMP_pressure;BME280_temperature;BME280_humidity;BME280_pressure;Samples;Min_cycle;Max_cycle;Signal;HPM_P1;HPM_P2
2021/06/01 00:02:33;;;;;;;6.72;3.03;;;;;;;;;;5004312;28;20456;-82
2021/06/01 00:05:18;;;;;;;6.30;3.63;;;;;;;;;;4990414;28;20037;-83
2021/06/01 00:08:04;;;;;;;5.60;3.40;;;;;;;;;;4984462;28;20184;-83
2021/06/01 00:10:49;;;;;;;5.65;3.38;;;;;;;;;;5000590;28;20392;-82
2021/06/01 00:13:34;;;;;;;6.75;3.67;;;;;;;;;;4992915;28;20061;-81
2021/06/01 00:16:20;;;;;;;4.47;3.45;;;;;;;;;;4986911;28;20029;-82
2021/06/01 00:19:07;;;;;;;4.32;3.25;;;;;;;;;;4977795;28;20507;-82
2021/06/01 00:21:52;;;;;;;5.43;3.20;;;;;;;;;;5001822;28;20049;-81
2021/06/01 00:24:37;;;;;;;5.60;3.65;;;;;;;;;;4997711;28;20084;-81
2021/06/01 00:27:23;;;;;;;4.38;3.25;;;;;;;;;;4993316;28;20034;-80
2021/06/01 00:30:08;;;;;;;4.78;3.50;;;;;;;;;;4991488;28;20081;-81
2021/06/01 00:32:53;;;;;;;8.45;3.70;;;;;;;;;;5003190;28;20053;-81
2021/06/01 00:35:38;;;;;;;6.25;3.78;;;;;;;;;;4993228;28;20032;-81
2021/06/01 00:38:24;;;;;;;5.60;3.42;;;;;;;;;;4992967;28;20636;-81
2021/06/01 00:41:09;;;;;;;4.15;2.97;;;;;;;;;;4992752;28;20044;-82
2021/06/01 00:43:54;;;;;;;6.60;3.45;;;;;;;;;;5002050;28;20029;-82
2021/06/01 00:46:39;;;;;;;4.28;3.33;;;;;;;;;;5000306;28;20109;-82
2021/06/01 00:49:25;;;;;;;4.93;3.67;;;;;;;;;;4990756;28;20495;-82
2021/06/01 00:52:11;;;;;;;4.85;3.08;;;;;;;;;;4979509;28;20037;-82
2021/06/01 00:54:56;;;;;;;4.82;3.33;;;;;;;;;;4988218;28;20026;-81
2021/06/01 00:57:43;;;;;;;7.00;3.30;;;;;;;;;;4986362;28;20121;-81
2021/06/01 01:03:36;;;;;;;6.82;3.92;;;;;;;;;;5004377;28;20057;-82
2021/06/01 01:06:22;;;;;;;5.82;3.67;;;;;;;;;;4992265;28;20992;-82
2021/06/01 01:09:11;;;;;;;6.05;3.72;;;;;;;;;;5001114;28;20147;-82
2021/06/01 01:11:56;;;;;;;6.20;3.70;;;;;;;;;;4996219;28;20083;-82
2021/06/01 01:14:44;;;;;;;6.00;4.25;;;;;;;;;;4992778;28;20033;-80
2021/06/01 01:17:38;;;;;;;5.22;3.05;;;;;;;;;;4989780;28;20061;-81
2021/06/01 01:20:29;;;;;;;6.38;4.00;;;;;;;;;;4995515;28;20064;-81
2021/06/01 01:23:18;;;;;;;7.05;3.83;;;;;;;;;;4996765;28;20403;-81
2021/06/01 01:26:17;;;;;;;5.75;3.15;;;;;;;;;;5003648;28;20036;-81
2021/06/01 01:29:11;;;;;;;5.63;3.50;;;;;;;;;;4990038;28;20029;-81
2021/06/01 01:31:58;;;;;;;10.10;3.30;;;;;;;;;;4995904;28;20075;-81
2021/06/01 01:34:44;;;;;;;5.60;3.88;;;;;;;;;;4997368;28;20592;-81
2021/06/01 01:37:32;;;;;;;5.00;3.70;;;;;;;;;;4992758;28;20120;-81
2021/06/01 01:40:21;;;;;;;6.07;3.85;;;;;;;;;;4999418;28;20160;-80
2021/06/01 01:43:10;;;;;;;5.97;3.35;;;;;;;;;;5001430;28;20040;-80
2021/06/01 01:46:03;;;;;;;6.97;3.92;;;;;;;;;;5001835;28;20384;-81
2021/06/01 01:49:02;;;;;;;6.45;4.00;;;;;;;;;;4995771;28;20026;-81
2021/06/01 01:51:50;;;;;;;4.30;3.55;;;;;;;;;;4990967;28;20135;-82
2021/06/01 01:54:35;;;;;;;7.45;3.88;;;;;;;;;;4996166;28;20049;-82
2021/06/01 01:57:21;;;;;;;6.22;3.53;;;;;;;;;;5006211;28;20100;-82
2021/06/01 02:00:07;;;;;;;6.47;4.05;;;;;;;;;;4994201;28;20025;-81
2021/06/01 02:02:53;;;;;;;7.13;3.75;;;;;;;;;;4997481;28;20015;-82
2021/06/01 02:05:39;;;;;;;6.35;3.80;;;;;;;;;;5006250;28;20013;-82
2021/06/01 02:08:24;;;;;;;7.90;3.85;;;;;;;;;;4994333;28;20025;-81
2021/06/01 02:11:10;;;;;;;6.10;3.70;;;;;;;;;;4996376;28;20480;-81
2021/06/01 02:14:05;;;;;;;6.10;3.40;;;;;;;;;;4999976;28;20129;-81
2021/06/01 02:16:51;;;;;;;7.45;4.05;;;;;;;;;;4997291;28;20022;-81
2021/06/01 02:19:37;;;;;;;6.72;4.07;;;;;;;;;;4986561;28;20362;-81
2021/06/01 02:23:47;;;;;;;5.80;3.85;;;;;;;;;;5003572;28;20416;-81
2021/06/01 02:25:38;;;;;;;4.68;3.38;;;;;;;;;;4995847;28;20022;-82
2021/06/01 02:28:29;;;;;;;4.70;3.60;;;;;;;;;;4998875;28;20607;-83
2021/06/01 02:31:17;;;;;;;7.18;3.60;;;;;;;;;;5005129;28;20029;-83
2021/06/01 02:34:02;;;;;;;4.78;3.67;;;;;;;;;;4996625;28;20112;-83
2021/06/01 02:36:50;;;;;;;6.30;3.70;;;;;;;;;;4993713;28;20538;-83
2021/06/01 02:39:36;;;;;;;5.38;3.45;;;;;;;;;;4995055;28;20072;-83
2021/06/01 02:42:21;;;;;;;5.95;3.85;;;;;;;;;;4993183;28;20036;-82
2021/06/01 02:45:07;;;;;;;7.30;3.83;;;;;;;;;;4991754;28;20057;-83
2021/06/01 02:47:53;;;;;;;5.55;3.65;;;;;;;;;;4993937;28;20416;-82
2021/06/01 02:50:40;;;;;;;7.57;4.18;;;;;;;;;;4988512;28;20022;-83
2021/06/01 02:53:25;;;;;;;5.47;3.90;;;;;;;;;;4994424;28;20502;-81
2021/06/01 02:56:11;;;;;;;6.85;3.70;;;;;;;;;;4997476;28;20025;-81
2021/06/01 02:58:57;;;;;;;6.20;4.07;;;;;;;;;;4990445;28;20056;-81
2021/06/01 03:01:42;;;;;;;6.72;4.22;;;;;;;;;;5006770;28;20021;-82
2021/06/01 03:04:28;;;;;;;5.50;3.67;;;;;;;;;;4998521;28;20105;-82
2021/06/01 03:07:13;;;;;;;5.18;3.50;;;;;;;;;;5005631;28;20543;-81
2021/06/01 03:09:59;;;;;;;6.38;4.03;;;;;;;;;;4983427;28;20056;-82
2021/06/01 03:12:50;;;;;;;8.88;4.10;;;;;;;;;;4995743;28;20029;-82
2021/06/01 03:15:35;;;;;;;5.72;3.50;;;;;;;;;;4997764;28;20037;-82
2021/06/01 03:18:21;;;;;;;4.28;3.67;;;;;;;;;;4992847;28;20033;-83
2021/06/01 03:21:06;;;;;;;6.70;4.03;;;;;;;;;;4981235;28;20420;-82
2021/06/01 03:23:52;;;;;;;6.35;3.90;;;;;;;;;;5001788;28;20059;-81
2021/06/01 03:26:37;;;;;;;7.07;3.53;;;;;;;;;;5000562;28;20112;-84
2021/06/01 03:29:23;;;;;;;7.53;3.95;;;;;;;;;;4995985;28;20109;-84
2021/06/01 03:32:08;;;;;;;11.02;4.30;;;;;;;;;;4997488;28;20767;-83
2021/06/01 03:34:53;;;;;;;8.68;4.22;;;;;;;;;;4995992;28;20415;-83
2021/06/01 03:37:38;;;;;;;9.30;4.18;;;;;;;;;;4992556;28;20480;-85
2021/06/01 03:40:24;;;;;;;7.50;4.40;;;;;;;;;;4998399;28;20423;-82
2021/06/01 03:43:09;;;;;;;6.55;3.75;;;;;;;;;;4982653;28;20034;-84
2021/06/01 03:45:55;;;;;;;5.93;3.90;;;;;;;;;;4988280;28;20029;-83
2021/06/01 03:48:40;;;;;;;6.82;4.18;;;;;;;;;;4993041;28;20030;-83
2021/06/01 03:51:25;;;;;;;6.50;3.90;;;;;;;;;;4987178;28;20033;-83
2021/06/01 03:54:10;;;;;;;7.53;3.92;;;;;;;;;;4996659;28;20048;-83
2021/06/01 03:56:56;;;;;;;8.70;4.13;;;;;;;;;;4998707;28;20036;-83
2021/06/01 03:59:41;;;;;;;7.07;4.10;;;;;;;;;;4997953;28;20112;-83
2021/06/01 04:02:26;;;;;;;6.32;3.55;;;;;;;;;;4983929;28;20060;-82
2021/06/01 04:05:12;;;;;;;7.93;4.43;;;;;;;;;;5016666;28;20018;-81
2021/06/01 04:07:57;;;;;;;8.13;4.28;;;;;;;;;;5024907;28;20053;-81
2021/06/01 04:10:42;;;;;;;5.93;4.35;;;;;;;;;;5007872;28;20035;-82
2021/06/01 04:13:27;;;;;;;8.88;4.22;;;;;;;;;;4998857;28;20052;-81
2021/06/01 04:16:12;;;;;;;6.72;4.53;;;;;;;;;;5001283;28;20027;-83
2021/06/01 04:18:58;;;;;;;6.25;4.10;;;;;;;;;;4987568;28;20017;-83
2021/06/01 04:21:43;;;;;;;8.13;4.22;;;;;;;;;;5000606;28;20428;-82
2021/06/01 04:24:28;;;;;;;7.45;4.47;;;;;;;;;;5002058;28;20026;-82
2021/06/01 04:27:14;;;;;;;8.10;4.40;;;;;;;;;;5001175;28;20492;-82
2021/06/01 04:29:59;;;;;;;6.65;3.90;;;;;;;;;;5002200;28;20112;-82
2021/06/01 04:32:44;;;;;;;6.60;4.18;;;;;;;;;;4985925;28;20029;-82
2021/06/01 04:35:29;;;;;;;9.02;4.65;;;;;;;;;;4995630;28;20124;-82
2021/06/01 04:38:15;;;;;;;8.50;4.65;;;;;;;;;;4999369;28;20697;-82
2021/06/01 04:41:00;;;;;;;9.88;4.03;;;;;;;;;;4987506;28;20058;-82
2021/06/01 04:43:45;;;;;;;6.70;4.30;;;;;;;;;;4990152;28;20025;-81
2021/06/01 04:46:31;;;;;;;8.00;4.45;;;;;;;;;;4993655;28;20099;-80
2021/06/01 04:49:16;;;;;;;10.40;4.28;;;;;;;;;;4982268;28;20026;-81
2021/06/01 04:52:02;;;;;;;7.07;4.30;;;;;;;;;;4983296;28;20029;-81
2021/06/01 04:54:47;;;;;;;8.02;4.47;;;;;;;;;;4995212;28;20124;-80
2021/06/01 04:57:32;;;;;;;9.02;4.53;;;;;;;;;;4997137;28;20109;-81
2021/06/01 05:00:18;;;;;;;6.35;3.83;;;;;;;;;;4998366;28;20100;-81
2021/06/01 05:03:03;;;;;;;6.65;4.20;;;;;;;;;;4998261;28;20017;-81
2021/06/01 05:05:48;;;;;;;6.38;4.03;;;;;;;;;;4983723;28;20373;-81
2021/06/01 05:08:34;;;;;;;7.15;4.60;;;;;;;;;;4989902;28;20032;-81
2021/06/01 05:11:20;;;;;;;7.80;4.10;;;;;;;;;;4975342;28;20473;-81
2021/06/01 05:14:10;;;;;;;6.25;4.10;;;;;;;;;;4997292;28;20028;-81
2021/06/01 05:16:55;;;;;;;;;;;;;;;;;;4978854;28;20420;-80
2021/06/01 05:19:40;;;;;;;7.00;4.15;;;;;;;;;;4991460;28;19910;-80
2021/06/01 05:22:26;;;;;;;8.55;4.55;;;;;;;;;;4994327;28;20045;-83
2021/06/01 05:25:11;;;;;;;8.55;4.55;;;;;;;;;;4990249;28;20108;-81
2021/06/01 05:27:56;;;;;;;7.80;3.67;;;;;;;;;;4990290;28;20566;-83
2021/06/01 05:33:57;;;;;;;6.22;3.75;;;;;;;;;;5005061;28;20017;-84
2021/06/01 05:36:42;;;;;;;8.88;3.72;;;;;;;;;;4992182;28;20056;-80
2021/06/01 05:39:30;;;;;;;7.57;3.58;;;;;;;;;;4996040;28;20418;-84
2021/06/01 05:42:15;;;;;;;9.50;3.97;;;;;;;;;;4979760;28;20353;-84
2021/06/01 05:45:01;;;;;;;7.00;3.60;;;;;;;;;;4999146;28;20465;-85
2021/06/01 05:47:46;;;;;;;10.70;3.80;;;;;;;;;;4995523;28;20048;-87
2021/06/01 05:50:31;;;;;;;8.95;3.55;;;;;;;;;;4999698;28;20037;-86
2021/06/01 05:53:17;;;;;;;9.27;4.20;;;;;;;;;;4989471;28;20030;-86
2021/06/01 05:56:02;;;;;;;4.63;3.28;;;;;;;;;;4999938;28;20041;-86
2021/06/01 05:58:48;;;;;;;8.02;3.60;;;;;;;;;;4998319;28;20044;-81
2021/06/01 06:01:33;;;;;;;8.55;3.67;;;;;;;;;;4989021;28;20073;-82
2021/06/01 06:04:18;;;;;;;7.32;3.55;;;;;;;;;;4992116;28;20104;-83
2021/06/01 06:07:03;;;;;;;5.13;3.28;;;;;;;;;;4996943;28;20059;-86
2021/06/01 06:09:49;;;;;;;13.85;8.93;;;;;;;;;;4988942;28;20052;-87
2021/06/01 06:12:34;;;;;;;16.73;12.85;;;;;;;;;;4992743;28;20034;-82
2021/06/01 06:15:19;;;;;;;7.25;3.85;;;;;;;;;;4991498;28;20022;-82
2021/06/01 06:18:23;;;;;;;4.40;3.50;;;;;;;;;;5000617;28;20033;-82
2021/06/01 06:21:10;;;;;;;3.22;2.63;;;;;;;;;;4995634;28;20041;-83
2021/06/01 06:23:56;;;;;;;4.47;3.15;;;;;;;;;;4985074;28;20022;-83
2021/06/01 06:26:41;;;;;;;4.50;3.08;;;;;;;;;;5007442;28;20037;-82
2021/06/01 06:29:26;;;;;;;4.30;2.88;;;;;;;;;;4996823;28;20399;-84
2021/06/01 06:32:12;;;;;;;4.95;3.30;;;;;;;;;;5000973;28;20084;-81
2021/06/01 06:34:57;;;;;;;8.30;2.88;;;;;;;;;;4998433;28;20030;-83
2021/06/01 06:37:42;;;;;;;4.63;2.78;;;;;;;;;;4998183;28;20021;-85
2021/06/01 06:40:28;;;;;;;7.07;2.88;;;;;;;;;;4991325;28;20037;-83
2021/06/01 06:43:13;;;;;;;5.38;2.83;;;;;;;;;;4976891;28;20021;-83
2021/06/01 06:46:01;;;;;;;5.78;2.85;;;;;;;;;;4998557;28;20021;-89
2021/06/01 06:48:46;;;;;;;4.60;3.10;;;;;;;;;;5005345;28;20026;-90
2021/06/01 06:51:32;;;;;;;4.82;2.53;;;;;;;;;;5007524;28;20109;-90
2021/06/01 06:54:17;;;;;;;3.65;2.83;;;;;;;;;;5005632;28;20225;-94
2021/06/01 06:57:03;;;;;;;4.80;3.10;;;;;;;;;;4995287;28;20029;-90
2021/06/01 06:59:49;;;;;;;9.68;5.63;;;;;;;;;;5016562;28;20022;-92
2021/06/01 07:02:36;;;;;;;11.30;5.38;;;;;;;;;;5023355;28;20006;-89
2021/06/01 07:05:21;;;;;;;6.53;3.28;;;;;;;;;;5013892;28;20045;-89
2021/06/01 07:08:07;;;;;;;6.82;3.17;;;;;;;;;;5029501;28;20125;-91
2021/06/01 07:10:52;;;;;;;4.88;3.33;;;;;;;;;;4998448;28;20494;-92
2021/06/01 07:13:44;;;;;;;3.60;2.80;;;;;;;;;;5008204;28;20034;-90
2021/06/01 07:27:19;;;;;;;3.10;2.45;;;;;;;;;;5686109;22;20073;-87
2021/06/01 07:30:06;;;;;;;4.32;2.67;;;;;;;;;;5039572;28;20032;-87
2021/06/01 07:32:51;;;;;;;5.18;2.30;;;;;;;;;;5043617;28;20047;-86
2021/06/01 07:50:04;;;;;;;6.13;2.38;;;;;;;;;;4885202;29;20102;-89
2021/06/01 07:59:32;;;;;;;4.35;2.13;;;;;;;;;;4877452;29;20036;-88
2021/06/01 08:06:35;;;;;;;;;;;;;;;;;;;;;
2021/06/01 08:09:38;;;;;;;5.20;2.50;;;;;;;;;;4822703;29;20106;-87
2021/06/01 08:12:49;;;;;;;2.67;2.15;;;;;;;;;;4867623;29;20037;-84
2021/06/01 08:15:58;;;;;;;6.43;2.85;;;;;;;;;;4848594;29;20045;-87
2021/06/01 08:19:11;;;;;;;4.20;2.70;;;;;;;;;;4822975;29;20037;-88
2021/06/01 08:25:06;;;;;;;6.63;2.53;;;;;;;;;;4893575;29;20195;-85
2021/06/01 08:27:58;;;;;;;7.00;2.80;;;;;;;;;;4914303;29;20048;-88
2021/06/01 08:30:53;;;;;;;7.93;2.67;;;;;;;;;;4983390;28;20030;-86
2021/06/01 08:33:58;;;;;;;4.15;2.78;;;;;;;;;;5020005;28;20392;-83
2021/06/01 08:36:44;;;;;;;3.17;2.50;;;;;;;;;;5009592;28;20025;-84
2021/06/01 08:39:29;;;;;;;4.25;2.20;;;;;;;;;;5009440;28;20498;-85
2021/06/01 08:42:17;;;;;;;7.30;2.50;;;;;;;;;;5020123;28;20391;-88
2021/06/01 08:45:15;;;;;;;3.00;1.90;;;;;;;;;;5012406;28;20029;-85
2021/06/01 08:51:27;;;;;;;6.65;2.53;;;;;;;;;;5033711;28;20017;-88
2021/06/01 08:54:13;;;;;;;4.60;2.20;;;;;;;;;;5022092;28;20021;-82
2021/06/01 08:57:00;;;;;;;3.85;2.28;;;;;;;;;;5013997;28;20063;-90
2021/06/01 08:59:48;;;;;;;5.18;2.15;;;;;;;;;;5029144;28;20045;-81
2021/06/01 09:02:40;;;;;;;5.10;2.35;;;;;;;;;;5017719;28;20033;-83
2021/06/01 09:19:56;;;;;;;2.50;1.83;;;;;;;;;;5028659;28;20053;-81
2021/06/01 09:21:31;;;;;;;3.28;2.13;;;;;;;;;;5017462;28;20037;-84
2021/06/01 09:24:16;;;;;;;3.35;1.88;;;;;;;;;;5017672;28;20036;-82
2021/06/01 09:29:49;;;;;;;2.67;2.00;;;;;;;;;;5010418;28;20167;-85
2021/06/01 09:32:41;;;;;;;3.50;2.05;;;;;;;;;;5008609;28;20029;-81
2021/06/01 09:35:43;;;;;;;4.05;2.22;;;;;;;;;;4993404;28;20022;-81
2021/06/01 09:38:29;;;;;;;4.43;1.95;;;;;;;;;;5013332;28;20029;-78
2021/06/01 09:41:16;;;;;;;3.17;2.13;;;;;;;;;;5010180;28;20020;-86
2021/06/01 09:44:06;;;;;;;4.47;2.42;;;;;;;;;;5013292;28;20075;-85
2021/06/01 09:46:54;;;;;;;5.32;2.55;;;;;;;;;;4997195;28;20464;-87
2021/06/01 09:49:39;;;;;;;5.28;2.00;;;;;;;;;;5014684;28;20356;-86
2021/06/01 09:52:25;;;;;;;7.18;2.35;;;;;;;;;;5017876;28;20029;-83
2021/06/01 09:55:14;;;;;;;4.80;2.20;;;;;;;;;;5018738;28;20544;-86
2021/06/01 09:57:59;;;;;;;;;;;;;;;;;;5012598;28;20436;-89
2021/06/01 10:00:46;;;;;;;4.97;2.15;;;;;;;;;;5025419;28;19908;-81
2021/06/01 10:03:46;;;;;;;4.28;2.30;;;;;;;;;;5028684;28;20029;-89
2021/06/01 10:06:35;;;;;;;3.03;2.00;;;;;;;;;;5019425;28;20060;-83
2021/06/01 10:09:20;;;;;;;4.25;2.00;;;;;;;;;;5018341;28;20029;-85
2021/06/01 10:12:08;;;;;;;3.67;2.00;;;;;;;;;;5019693;28;20021;-85
2021/06/01 10:14:54;;;;;;;2.70;2.03;;;;;;;;;;5018367;28;20033;-85
2021/06/01 10:17:39;;;;;;;6.45;2.35;;;;;;;;;;5020362;28;20545;-85
2021/06/01 10:20:25;;;;;;;4.40;2.33;;;;;;;;;;5004164;28;20033;-85
2021/06/01 10:23:11;;;;;;;5.13;3.63;;;;;;;;;;5015514;28;20090;-83
2021/06/01 10:25:57;;;;;;;7.68;3.85;;;;;;;;;;5012535;28;20021;-82
2021/06/01 10:28:44;;;;;;;3.10;2.33;;;;;;;;;;5016707;28;20049;-84
2021/06/01 10:31:30;;;;;;;5.38;2.65;;;;;;;;;;5018818;28;20029;-84
2021/06/01 10:34:17;;;;;;;4.95;2.35;;;;;;;;;;5001384;28;20018;-82
2021/06/01 10:52:12;;;;;;;3.35;2.10;;;;;;;;;;5010668;28;20029;-83
2021/06/01 10:54:57;;;;;;;5.43;2.38;;;;;;;;;;5015873;28;20096;-82
2021/06/01 10:57:52;;;;;;;4.57;2.30;;;;;;;;;;5015772;28;20736;-83
2021/06/01 11:03:29;;;;;;;2.72;2.17;;;;;;;;;;5014282;28;20171;-83
2021/06/01 11:06:16;;;;;;;5.07;2.33;;;;;;;;;;5018831;28;20029;-84
2021/06/01 11:09:11;;;;;;;4.63;2.38;;;;;;;;;;5020169;28;20029;-95
2021/06/01 11:12:29;;;;;;;5.20;2.10;;;;;;;;;;5009504;28;20534;-88
2021/06/01 11:15:19;;;;;;;2.92;2.00;;;;;;;;;;5023211;28;20029;-91
2021/06/01 11:18:15;;;;;;;3.70;2.25;;;;;;;;;;5013007;28;20013;-86
2021/06/01 11:21:35;;;;;;;2.50;1.80;;;;;;;;;;5015806;28;20101;-88
2021/06/01 11:35:49;;;;;;;4.93;2.33;;;;;;;;;;5015246;28;20123;-83
2021/06/01 11:38:41;;;;;;;4.20;2.22;;;;;;;;;;5010286;28;20123;-85
2021/06/01 11:44:35;;;;;;;4.82;2.10;;;;;;;;;;5024314;28;20032;-87
2021/06/01 11:47:41;;;;;;;2.13;1.70;;;;;;;;;;5016206;28;20093;-88
2021/06/01 11:53:30;;;;;;;5.15;2.70;;;;;;;;;;5018908;28;20037;-84
2021/06/01 11:56:19;;;;;;;4.18;2.30;;;;;;;;;;5003546;28;20049;-84
2021/06/01 12:05:44;;;;;;;7.35;2.70;;;;;;;;;;5015776;28;20017;-85
2021/06/01 12:11:53;;;;;;;6.20;2.17;;;;;;;;;;5022126;28;20110;-83
2021/06/01 12:21:17;;;;;;;4.22;2.38;;;;;;;;;;4955380;28;20027;-88
2021/06/01 12:24:09;;;;;;;3.60;1.85;;;;;;;;;;5011730;28;20144;-88
2021/06/01 12:32:45;;;;;;;4.80;2.10;;;;;;;;;;5015226;28;20552;-85
2021/06/01 12:35:49;;;;;;;3.42;2.33;;;;;;;;;;5012216;28;20025;-85
2021/06/01 12:42:08;;;;;;;11.70;6.65;;;;;;;;;;4961541;28;20028;-89
2021/06/01 12:45:00;;;;;;;6.97;3.83;;;;;;;;;;5036412;28;20030;-88
2021/06/01 13:47:22;;;;;;;3.22;2.10;;;;;;;;;;5033733;28;20037;-95
2021/06/01 13:50:08;;;;;;;5.45;2.50;;;;;;;;;;5009357;28;20064;-91
2021/06/01 13:56:05;;;;;;;3.17;2.53;;;;;;;;;;5020507;28;20040;-86
2021/06/01 15:49:36;;;;;;;14.52;3.38;;;;;;;;;;5006227;28;20076;-84
2021/06/01 16:13:52;;;;;;;10.27;2.78;;;;;;;;;;5014067;28;20034;-84
2021/06/01 17:05:39;;;;;;;3.72;1.90;;;;;;;;;;5008125;28;20461;-83
2021/06/01 17:11:32;;;;;;;3.17;2.38;;;;;;;;;;5012650;28;20064;-85
2021/06/01 17:14:21;;;;;;;6.40;2.30;;;;;;;;;;5005443;28;20030;-85
2021/06/01 17:17:07;;;;;;;6.27;2.50;;;;;;;;;;5005565;28;20038;-83
2021/06/01 17:22:51;;;;;;;3.45;1.92;;;;;;;;;;5014929;28;20053;-85
2021/06/01 17:34:55;;;;;;;5.88;2.50;;;;;;;;;;5010778;28;20025;-89
2021/06/01 17:37:41;;;;;;;7.43;2.20;;;;;;;;;;5011895;28;20067;-91
2021/06/01 17:40:26;;;;;;;2.70;1.90;;;;;;;;;;5017465;28;20074;-85
2021/06/01 17:43:13;;;;;;;5.20;1.98;;;;;;;;;;5004866;28;20022;-83
2021/06/01 17:45:59;;;;;;;5.47;2.40;;;;;;;;;;5006799;28;20026;-82
2021/06/01 17:48:55;;;;;;;4.10;2.28;;;;;;;;;;4996080;28;20549;-82
2021/06/01 17:51:43;;;;;;;6.28;2.67;;;;;;;;;;5000260;28;20176;-82
2021/06/01 17:54:32;;;;;;;4.10;2.65;;;;;;;;;;5007162;28;20030;-80
2021/06/01 17:57:19;;;;;;;6.47;2.20;;;;;;;;;;5005410;28;20076;-81
2021/06/01 18:00:04;;;;;;;4.35;2.85;;;;;;;;;;5003311;28;20052;-84
2021/06/01 18:02:50;;;;;;;5.65;2.40;;;;;;;;;;5006225;28;20026;-83
2021/06/01 18:05:39;;;;;;;6.78;3.55;;;;;;;;;;5003863;28;20025;-84
2021/06/01 18:08:36;;;;;;;5.78;2.70;;;;;;;;;;5002000;28;20104;-87
2021/06/01 19:28:11;;;;;;;7.38;2.90;;;;;;;;;;4940476;28;20054;-81
2021/06/01 19:43:41;;;;;;;4.72;2.45;;;;;;;;;;5009818;28;20179;-80
2021/06/01 19:49:57;;;;;;;9.75;3.65;;;;;;;;;;5016186;28;20109;-82
2021/06/01 19:52:34;;;;;;;9.00;3.10;;;;;;;;;;5015835;28;20025;-84
2021/06/01 19:55:20;;;;;;;5.22;3.10;;;;;;;;;;5023009;28;20037;-85
2021/06/01 19:58:06;;;;;;;8.27;5.40;;;;;;;;;;5016613;28;20360;-83
2021/06/01 20:00:51;;;;;;;6.88;3.70;;;;;;;;;;5012251;28;20029;-84
2021/06/01 20:03:38;;;;;;;9.57;3.80;;;;;;;;;;5025037;28;20025;-81
2021/06/01 20:06:23;;;;;;;6.00;3.35;;;;;;;;;;5028300;28;20570;-83
2021/06/01 20:09:08;;;;;;;4.88;2.60;;;;;;;;;;5019572;28;20028;-83
2021/06/01 20:11:54;;;;;;;6.13;2.92;;;;;;;;;;5017071;28;20035;-84
2021/06/01 20:14:39;;;;;;;9.50;3.10;;;;;;;;;;5025139;28;20061;-84
2021/06/01 20:17:29;;;;;;;6.10;3.22;;;;;;;;;;5019749;28;21053;-84
2021/06/01 20:20:14;;;;;;;;;;;;;;;;;;5022875;28;20032;-83
2021/06/01 20:23:01;;;;;;;5.20;3.00;;;;;;;;;;5016865;28;20054;-84
2021/06/01 20:25:56;;;;;;;4.95;2.60;;;;;;;;;;5018507;28;20375;-85
2021/06/01 20:28:47;;;;;;;5.75;3.15;;;;;;;;;;5013833;28;20076;-84
2021/06/01 20:31:34;;;;;;;3.90;2.90;;;;;;;;;;5016437;28;20072;-82
2021/06/01 20:34:19;;;;;;;3.65;3.13;;;;;;;;;;5003980;28;20033;-83
2021/06/01 20:37:07;;;;;;;5.43;3.17;;;;;;;;;;5016207;28;20033;-83
2021/06/01 20:39:53;;;;;;;4.97;2.90;;;;;;;;;;5015613;28;20017;-82
2021/06/01 20:42:42;;;;;;;8.98;3.08;;;;;;;;;;5025394;28;20025;-86
2021/06/01 20:45:29;;;;;;;7.70;2.65;;;;;;;;;;5013037;28;20045;-83
2021/06/01 20:48:16;;;;;;;3.90;2.85;;;;;;;;;;5018662;28;20132;-80
2021/06/01 20:51:02;;;;;;;8.85;3.50;;;;;;;;;;4996937;28;20502;-82
2021/06/01 20:53:47;;;;;;;8.77;5.45;;;;;;;;;;5004611;28;20041;-81
2021/06/01 20:56:32;;;;;;;15.45;8.95;;;;;;;;;;5018566;28;20021;-82
2021/06/01 20:59:18;;;;;;;9.32;4.03;;;;;;;;;;5013748;28;20052;-81
2021/06/01 21:02:03;;;;;;;4.55;3.08;;;;;;;;;;5020084;28;20026;-81
2021/06/01 21:04:50;;;;;;;5.07;3.50;;;;;;;;;;5010018;28;20033;-80
2021/06/01 21:07:35;;;;;;;6.93;3.30;;;;;;;;;;5014193;28;20025;-81
2021/06/01 21:10:20;;;;;;;15.13;3.78;;;;;;;;;;5011138;28;20428;-79
2021/06/01 21:13:05;;;;;;;6.60;3.50;;;;;;;;;;5020699;28;20049;-80
2021/06/01 21:15:51;;;;;;;7.03;3.90;;;;;;;;;;5016376;28;20440;-80
2021/06/01 21:18:36;;;;;;;5.07;2.90;;;;;;;;;;5021254;28;20033;-82
2021/06/01 21:21:21;;;;;;;5.88;3.38;;;;;;;;;;5010709;28;20033;-81
2021/06/01 21:24:08;;;;;;;10.38;3.65;;;;;;;;;;5012609;28;20104;-81
2021/06/01 21:26:53;;;;;;;5.72;3.40;;;;;;;;;;5013464;28;20049;-82
2021/06/01 21:29:39;;;;;;;6.57;3.17;;;;;;;;;;5015183;28;20029;-81
2021/06/01 21:32:28;;;;;;;6.30;3.20;;;;;;;;;;5016340;28;20032;-81
2021/06/01 21:35:14;;;;;;;7.05;3.80;;;;;;;;;;5024389;28;20025;-82
2021/06/01 21:38:06;;;;;;;6.85;3.45;;;;;;;;;;5018098;28;20033;-83
2021/06/01 21:40:52;;;;;;;4.47;2.95;;;;;;;;;;5007945;28;20480;-83
2021/06/01 21:43:38;;;;;;;7.18;3.28;;;;;;;;;;5010438;28;20021;-84
2021/06/01 21:46:24;;;;;;;4.65;3.13;;;;;;;;;;5013899;28;20025;-83
2021/06/01 21:49:10;;;;;;;6.97;3.33;;;;;;;;;;5017096;28;20067;-81
2021/06/01 21:51:56;;;;;;;4.85;3.42;;;;;;;;;;5012378;28;20033;-83
2021/06/01 21:54:42;;;;;;;4.13;3.13;;;;;;;;;;5018200;28;20029;-82
2021/06/01 21:57:29;;;;;;;5.20;3.03;;;;;;;;;;5017355;28;20102;-82
2021/06/01 22:00:17;;;;;;;7.78;3.45;;;;;;;;;;5025028;28;20127;-82
2021/06/01 22:03:03;;;;;;;5.80;3.90;;;;;;;;;;5014943;28;20495;-82
2021/06/01 22:05:52;;;;;;;6.78;3.20;;;;;;;;;;5023786;28;20112;-82
2021/06/01 22:08:38;;;;;;;6.70;3.33;;;;;;;;;;5016373;28;20033;-82
2021/06/01 22:11:23;;;;;;;5.20;3.33;;;;;;;;;;5025274;28;20040;-83
2021/06/01 22:14:20;;;;;;;5.00;3.15;;;;;;;;;;5018000;28;20065;-84
2021/06/01 22:17:06;;;;;;;7.05;3.00;;;;;;;;;;5015572;28;20116;-84
2021/06/01 22:19:52;;;;;;;7.15;3.33;;;;;;;;;;5018282;28;20782;-83
2021/06/01 22:22:43;;;;;;;5.05;2.88;;;;;;;;;;5016288;28;20032;-82
2021/06/01 22:25:38;;;;;;;7.00;3.00;;;;;;;;;;5011393;28;20065;-82
2021/06/01 22:28:28;;;;;;;5.85;3.42;;;;;;;;;;4995306;28;20397;-83
2021/06/01 22:31:15;;;;;;;9.60;6.15;;;;;;;;;;4994377;28;20042;-83
2021/06/01 22:40:40;;;;;;;5.05;3.03;;;;;;;;;;4986182;28;20407;-82
2021/06/01 22:49:59;;;;;;;4.22;2.90;;;;;;;;;;4985601;28;20113;-82
2021/06/01 22:52:59;;;;;;;5.55;3.33;;;;;;;;;;4991788;28;20026;-83
2021/06/01 22:55:50;;;;;;;5.65;3.28;;;;;;;;;;4978979;28;20501;-83
2021/06/01 22:59:14;;;;;;;4.57;3.10;;;;;;;;;;4988690;28;20495;-82
2021/06/01 23:02:20;;;;;;;4.85;3.10;;;;;;;;;;4960546;28;20364;-84
2021/06/01 23:05:25;;;;;;;6.30;3.50;;;;;;;;;;4984446;28;20026;-82
2021/06/01 23:08:11;;;;;;;5.70;3.35;;;;;;;;;;4988959;28;20045;-82
2021/06/01 23:11:04;;;;;;;7.20;3.55;;;;;;;;;;4985602;28;20038;-82
2021/06/01 23:13:53;;;;;;;5.82;3.25;;;;;;;;;;4991003;28;20109;-81
2021/06/01 23:16:39;;;;;;;5.22;3.17;;;;;;;;;;4996204;28;20120;-83
2021/06/01 23:19:24;;;;;;;5.10;3.60;;;;;;;;;;4987438;28;20092;-83
2021/06/01 23:22:10;;;;;;;5.80;3.47;;;;;;;;;;4989420;28;20022;-82
2021/06/01 23:24:55;;;;;;;5.15;3.20;;;;;;;;;;4990751;28;20042;-83
2021/06/01 23:27:41;;;;;;;7.65;3.78;;;;;;;;;;4995382;28;20054;-82
2021/06/01 23:30:26;;;;;;;7.18;3.63;;;;;;;;;;4993156;28;21687;-82
2021/06/01 23:33:12;;;;;;;7.63;3.40;;;;;;;;;;4996047;28;20030;-81
2021/06/01 23:35:59;;;;;;;6.43;3.83;;;;;;;;;;5013053;28;20127;-81
2021/06/01 23:38:45;;;;;;;5.22;3.47;;;;;;;;;;5008151;28;20083;-81
2021/06/01 23:41:30;;;;;;;5.88;3.63;;;;;;;;;;5005901;28;20393;-80
2021/06/01 23:44:19;;;;;;;6.05;3.72;;;;;;;;;;5009239;28;20072;-82
2021/06/01 23:47:12;;;;;;;7.37;3.23;;;;;;;;;;5011192;28;20040;-81
2021/06/01 23:49:58;;;;;;;6.00;3.90;;;;;;;;;;5008081;28;20261;-82
2021/06/01 23:52:44;;;;;;;4.88;3.78;;;;;;;;;;4990251;28;20026;-82
2021/06/01 23:55:29;;;;;;;6.35;3.85;;;;;;;;;;5013572;28;20117;-83
2021/06/01 23:58:15;;;;;;;8.75;3.90;;;;;;;;;;5007194;28;20028;-82
